sensor_id;sensor_type;location;lat;lon;timestamp;P1;durP1;ratioP1;P2;durP2;ratioP2
13048;SDS011;6591;51.446;5.404;2023-09-18T00:00:57;9.10;;;8.25;;
13048;SDS011;6591;51.446;5.404;2023-09-18T00:03:25;9.70;;;8.27;;
13048;SDS011;6591;51.446;5.404;2023-09-18T00:05:52;10.85;;;9.45;;
13048;SDS011;6591;51.446;5.404;2023-09-18T00:08:19;10.02;;;9.02;;
13048;SDS011;6591;51.446;5.404;2023-09-18T00:10:51;9.73;;;8.52;;
13048;SDS011;6591;51.446;5.404;2023-09-18T00:13:21;9.40;;;8.50;;
13048;SDS011;6591;51.446;5.404;2023-09-18T00:15:49;10.70;;;8.85;;
13048;SDS011;6591;51.446;5.404;2023-09-18T00:18:18;9.73;;;8.18;;
13048;SDS011;6591;51.446;5.404;2023-09-18T00:20:45;10.05;;;8.02;;
13048;SDS011;6591;51.446;5.404;2023-09-18T00:23:14;8.15;;;7.32;;
13048;SDS011;6591;51.446;5.404;2023-09-18T00:25:42;8.52;;;7.72;;
13048;SDS011;6591;51.446;5.404;2023-09-18T00:28:09;8.90;;;8.00;;
13048;SDS011;6591;51.446;5.404;2023-09-18T00:30:38;8.02;;;7.32;;
13048;SDS011;6591;51.446;5.404;2023-09-18T00:33:10;8.63;;;7.63;;
13048;SDS011;6591;51.446;5.404;2023-09-18T00:35:37;8.15;;;7.32;;
13048;SDS011;6591;51.446;5.404;2023-09-18T00:38:04;7.65;;;6.95;;
13048;SDS011;6591;51.446;5.404;2023-09-18T00:40:34;7.68;;;6.95;;
13048;SDS011;6591;51.446;5.404;2023-09-18T00:43:02;9.05;;;7.50;;
13048;SDS011;6591;51.446;5.404;2023-09-18T00:45:29;7.70;;;6.90;;
13048;SDS011;6591;51.446;5.404;2023-09-18T00:47:57;7.05;;;6.45;;
13048;SDS011;6591;51.446;5.404;2023-09-18T00:50:24;7.88;;;7.18;;
13048;SDS011;6591;51.446;5.404;2023-09-18T00:52:53;7.03;;;6.35;;
13048;SDS011;6591;51.446;5.404;2023-09-18T00:55:21;7.97;;;6.93;;
13048;SDS011;6591;51.446;5.404;2023-09-18T00:57:49;7.65;;;6.85;;
13048;SDS011;6591;51.446;5.404;2023-09-18T01:00:16;8.10;;;7.10;;
13048;SDS011;6591;51.446;5.404;2023-09-18T01:02:44;7.18;;;6.47;;
13048;SDS011;6591;51.446;5.404;2023-09-18T01:05:12;7.20;;;6.50;;
13048;SDS011;6591;51.446;5.404;2023-09-18T01:07:43;7.95;;;7.07;;
13048;SDS011;6591;51.446;5.404;2023-09-18T01:10:11;8.25;;;6.60;;
13048;SDS011;6591;51.446;5.404;2023-09-18T01:12:51;8.05;;;6.70;;
13048;SDS011;6591;51.446;5.404;2023-09-18T01:15:43;6.65;;;6.05;;
13048;SDS011;6591;51.446;5.404;2023-09-18T01:18:18;7.15;;;6.45;;
13048;SDS011;6591;51.446;5.404;2023-09-18T01:20:45;7.60;;;6.07;;
13048;SDS011;6591;51.446;5.404;2023-09-18T01:23:13;6.97;;;6.30;;
13048;SDS011;6591;51.446;5.404;2023-09-18T01:25:40;7.18;;;6.00;;
13048;SDS011;6591;51.446;5.404;2023-09-18T01:28:07;9.70;;;6.43;;
13048;SDS011;6591;51.446;5.404;2023-09-18T01:30:36;6.82;;;6.13;;
13048;SDS011;6591;51.446;5.404;2023-09-18T01:33:04;7.03;;;6.10;;
13048;SDS011;6591;51.446;5.404;2023-09-18T01:35:34;6.72;;;6.10;;
13048;SDS011;6591;51.446;5.404;2023-09-18T01:38:03;6.55;;;5.90;;
13048;SDS011;6591;51.446;5.404;2023-09-18T01:40:31;6.38;;;5.78;;
13048;SDS011;6591;51.446;5.404;2023-09-18T01:42:59;6.70;;;5.65;;
13048;SDS011;6591;51.446;5.404;2023-09-18T01:45:26;7.90;;;5.88;;
13048;SDS011;6591;51.446;5.404;2023-09-18T01:47:53;8.82;;;5.57;;
13048;SDS011;6591;51.446;5.404;2023-09-18T01:50:20;6.15;;;5.40;;
13048;SDS011;6591;51.446;5.404;2023-09-18T01:52:48;7.00;;;5.32;;
13048;SDS011;6591;51.446;5.404;2023-09-18T01:55:15;7.30;;;5.28;;
13048;SDS011;6591;51.446;5.404;2023-09-18T01:57:42;6.65;;;5.45;;
13048;SDS011;6591;51.446;5.404;2023-09-18T02:00:10;5.55;;;5.05;;
13048;SDS011;6591;51.446;5.404;2023-09-18T02:02:39;6.97;;;5.40;;
13048;SDS011;6591;51.446;5.404;2023-09-18T02:05:27;5.80;;;5.28;;
13048;SDS011;6591;51.446;5.404;2023-09-18T02:07:55;5.78;;;4.95;;
13048;SDS011;6591;51.446;5.404;2023-09-18T02:10:23;10.40;;;5.43;;
13048;SDS011;6591;51.446;5.404;2023-09-18T02:12:50;6.07;;;4.85;;
13048;SDS011;6591;51.446;5.404;2023-09-18T02:15:17;5.68;;;5.18;;
13048;SDS011;6591;51.446;5.404;2023-09-18T02:17:44;7.65;;;5.13;;
13048;SDS011;6591;51.446;5.404;2023-09-18T02:20:12;6.00;;;4.82;;
13048;SDS011;6591;51.446;5.404;2023-09-18T02:22:40;5.32;;;4.82;;
13048;SDS011;6591;51.446;5.404;2023-09-18T02:25:07;7.40;;;5.15;;
13048;SDS011;6591;51.446;5.404;2023-09-18T02:27:35;9.25;;;4.70;;
13048;SDS011;6591;51.446;5.404;2023-09-18T02:30:02;6.97;;;5.05;;
13048;SDS011;6591;51.446;5.404;2023-09-18T02:32:30;6.30;;;4.88;;
13048;SDS011;6591;51.446;5.404;2023-09-18T02:34:57;5.95;;;4.78;;
13048;SDS011;6591;51.446;5.404;2023-09-18T02:37:25;7.32;;;4.95;;
13048;SDS011;6591;51.446;5.404;2023-09-18T02:39:52;6.68;;;5.18;;
13048;SDS011;6591;51.446;5.404;2023-09-18T02:42:20;6.50;;;5.03;;
13048;SDS011;6591;51.446;5.404;2023-09-18T02:44:47;6.72;;;4.93;;
13048;SDS011;6591;51.446;5.404;2023-09-18T02:47:15;5.40;;;4.70;;
13048;SDS011;6591;51.446;5.404;2023-09-18T02:49:43;7.07;;;4.90;;
13048;SDS011;6591;51.446;5.404;2023-09-18T02:52:10;7.05;;;5.18;;
13048;SDS011;6591;51.446;5.404;2023-09-18T02:54:37;8.90;;;4.90;;
13048;SDS011;6591;51.446;5.404;2023-09-18T02:57:04;5.47;;;4.55;;
13048;SDS011;6591;51.446;5.404;2023-09-18T02:59:31;6.68;;;4.93;;
13048;SDS011;6591;51.446;5.404;2023-09-18T03:01:59;5.90;;;4.75;;
13048;SDS011;6591;51.446;5.404;2023-09-18T03:04:26;7.38;;;4.45;;
13048;SDS011;6591;51.446;5.404;2023-09-18T03:06:53;6.63;;;4.88;;
13048;SDS011;6591;51.446;5.404;2023-09-18T03:09:21;6.65;;;4.85;;
13048;SDS011;6591;51.446;5.404;2023-09-18T03:11:48;8.48;;;4.72;;
13048;SDS011;6591;51.446;5.404;2023-09-18T03:14:15;9.23;;;4.88;;
13048;SDS011;6591;51.446;5.404;2023-09-18T03:16:42;5.55;;;5.00;;
13048;SDS011;6591;51.446;5.404;2023-09-18T03:19:10;8.75;;;5.13;;
13048;SDS011;6591;51.446;5.404;2023-09-18T03:21:37;5.80;;;4.68;;
13048;SDS011;6591;51.446;5.404;2023-09-18T03:24:05;6.53;;;5.07;;
13048;SDS011;6591;51.446;5.404;2023-09-18T03:26:32;5.65;;;4.68;;
13048;SDS011;6591;51.446;5.404;2023-09-18T03:29:00;8.10;;;4.85;;
13048;SDS011;6591;51.446;5.404;2023-09-18T03:31:27;6.55;;;5.25;;
13048;SDS011;6591;51.446;5.404;2023-09-18T03:33:56;9.50;;;5.18;;
13048;SDS011;6591;51.446;5.404;2023-09-18T03:36:25;6.90;;;5.05;;
13048;SDS011;6591;51.446;5.404;2023-09-18T03:38:53;7.55;;;5.00;;
13048;SDS011;6591;51.446;5.404;2023-09-18T03:41:21;8.63;;;5.32;;
13048;SDS011;6591;51.446;5.404;2023-09-18T03:43:48;5.97;;;5.25;;
13048;SDS011;6591;51.446;5.404;2023-09-18T03:46:17;6.82;;;5.32;;
13048;SDS011;6591;51.446;5.404;2023-09-18T03:48:47;7.53;;;5.10;;
13048;SDS011;6591;51.446;5.404;2023-09-18T03:51:16;7.35;;;5.10;;
13048;SDS011;6591;51.446;5.404;2023-09-18T03:53:45;5.47;;;4.97;;
13048;SDS011;6591;51.446;5.404;2023-09-18T03:56:13;7.97;;;5.20;;
13048;SDS011;6591;51.446;5.404;2023-09-18T03:58:40;8.18;;;5.53;;
13048;SDS011;6591;51.446;5.404;2023-09-18T04:01:08;9.38;;;5.50;;
13048;SDS011;6591;51.446;5.404;2023-09-18T04:03:35;8.15;;;5.53;;
13048;SDS011;6591;51.446;5.404;2023-09-18T04:06:02;9.13;;;5.22;;
13048;SDS011;6591;51.446;5.404;2023-09-18T04:08:29;9.80;;;5.65;;
13048;SDS011;6591;51.446;5.404;2023-09-18T04:10:59;7.13;;;5.78;;
13048;SDS011;6591;51.446;5.404;2023-09-18T04:13:26;6.68;;;5.68;;
13048;SDS011;6591;51.446;5.404;2023-09-18T04:15:54;8.43;;;5.65;;
13048;SDS011;6591;51.446;5.404;2023-09-18T04:18:24;8.32;;;6.03;;
13048;SDS011;6591;51.446;5.404;2023-09-18T04:20:52;7.25;;;5.25;;
13048;SDS011;6591;51.446;5.404;2023-09-18T04:25:52;7.55;;;5.43;;
13048;SDS011;6591;51.446;5.404;2023-09-18T04:28:21;11.13;;;5.65;;
13048;SDS011;6591;51.446;5.404;2023-09-18T04:30:49;7.32;;;5.72;;
13048;SDS011;6591;51.446;5.404;2023-09-18T04:33:17;8.27;;;5.60;;
13048;SDS011;6591;51.446;5.404;2023-09-18T04:35:46;11.85;;;6.13;;
13048;SDS011;6591;51.446;5.404;2023-09-18T04:38:13;7.70;;;5.80;;
13048;SDS011;6591;51.446;5.404;2023-09-18T04:40:46;6.28;;;5.43;;
13048;SDS011;6591;51.446;5.404;2023-09-18T04:43:13;6.65;;;5.22;;
13048;SDS011;6591;51.446;5.404;2023-09-18T04:45:41;6.03;;;5.38;;
13048;SDS011;6591;51.446;5.404;2023-09-18T04:48:10;5.93;;;5.10;;
13048;SDS011;6591;51.446;5.404;2023-09-18T04:50:38;7.55;;;5.30;;
13048;SDS011;6591;51.446;5.404;2023-09-18T04:53:06;6.50;;;5.03;;
13048;SDS011;6591;51.446;5.404;2023-09-18T04:55:33;5.93;;;4.60;;
13048;SDS011;6591;51.446;5.404;2023-09-18T04:58:00;4.93;;;3.60;;
13048;SDS011;6591;51.446;5.404;2023-09-18T05:00:28;4.30;;;3.35;;
13048;SDS011;6591;51.446;5.404;2023-09-18T05:02:58;5.72;;;3.35;;
13048;SDS011;6591;51.446;5.404;2023-09-18T05:05:28;4.22;;;2.90;;
13048;SDS011;6591;51.446;5.404;2023-09-18T05:07:56;4.82;;;3.17;;
13048;SDS011;6591;51.446;5.404;2023-09-18T05:10:24;3.92;;;3.03;;
13048;SDS011;6591;51.446;5.404;2023-09-18T05:12:51;4.45;;;2.78;;
13048;SDS011;6591;51.446;5.404;2023-09-18T05:15:25;3.20;;;2.72;;
13048;SDS011;6591;51.446;5.404;2023-09-18T05:17:56;4.43;;;3.10;;
13048;SDS011;6591;51.446;5.404;2023-09-18T05:20:29;4.45;;;3.15;;
13048;SDS011;6591;51.446;5.404;2023-09-18T05:22:58;3.85;;;2.80;;
13048;SDS011;6591;51.446;5.404;2023-09-18T05:25:26;5.05;;;3.55;;
13048;SDS011;6591;51.446;5.404;2023-09-18T05:27:58;3.78;;;3.17;;
13048;SDS011;6591;51.446;5.404;2023-09-18T05:30:28;3.08;;;2.45;;
13048;SDS011;6591;51.446;5.404;2023-09-18T05:32:59;2.80;;;2.55;;
13048;SDS011;6591;51.446;5.404;2023-09-18T05:35:32;3.92;;;2.65;;
13048;SDS011;6591;51.446;5.404;2023-09-18T05:38:03;3.85;;;2.30;;
13048;SDS011;6591;51.446;5.404;2023-09-18T05:40:32;3.42;;;2.17;;
13048;SDS011;6591;51.446;5.404;2023-09-18T05:42:59;2.30;;;2.10;;
13048;SDS011;6591;51.446;5.404;2023-09-18T05:45:26;2.05;;;1.80;;
13048;SDS011;6591;51.446;5.404;2023-09-18T05:47:54;3.40;;;2.17;;
13048;SDS011;6591;51.446;5.404;2023-09-18T05:50:30;4.15;;;1.77;;
13048;SDS011;6591;51.446;5.404;2023-09-18T05:52:59;4.22;;;1.90;;
13048;SDS011;6591;51.446;5.404;2023-09-18T05:55:31;1.77;;;1.60;;
13048;SDS011;6591;51.446;5.404;2023-09-18T05:58:00;4.60;;;1.95;;
13048;SDS011;6591;51.446;5.404;2023-09-18T06:00:29;2.38;;;1.70;;
13048;SDS011;6591;51.446;5.404;2023-09-18T06:02:57;3.55;;;1.65;;
13048;SDS011;6591;51.446;5.404;2023-09-18T06:05:25;2.72;;;1.95;;
13048;SDS011;6591;51.446;5.404;2023-09-18T06:07:53;2.50;;;1.90;;
13048;SDS011;6591;51.446;5.404;2023-09-18T06:10:20;1.73;;;1.58;;
13048;SDS011;6591;51.446;5.404;2023-09-18T06:12:47;2.67;;;1.58;;
13048;SDS011;6591;51.446;5.404;2023-09-18T06:15:15;4.60;;;2.10;;
13048;SDS011;6591;51.446;5.404;2023-09-18T06:17:43;2.25;;;1.42;;
13048;SDS011;6591;51.446;5.404;2023-09-18T06:20:11;1.80;;;1.42;;
13048;SDS011;6591;51.446;5.404;2023-09-18T06:22:42;1.73;;;1.50;;
13048;SDS011;6591;51.446;5.404;2023-09-18T06:25:10;1.92;;;1.60;;
13048;SDS011;6591;51.446;5.404;2023-09-18T06:27:37;2.20;;;1.50;;
13048;SDS011;6591;51.446;5.404;2023-09-18T06:30:05;2.83;;;1.90;;
13048;SDS011;6591;51.446;5.404;2023-09-18T06:32:34;2.47;;;1.60;;
13048;SDS011;6591;51.446;5.404;2023-09-18T06:35:03;2.35;;;1.67;;
13048;SDS011;6591;51.446;5.404;2023-09-18T06:37:31;4.15;;;1.70;;
13048;SDS011;6591;51.446;5.404;2023-09-18T06:39:58;4.18;;;1.80;;
13048;SDS011;6591;51.446;5.404;2023-09-18T06:42:25;2.85;;;1.55;;
13048;SDS011;6591;51.446;5.404;2023-09-18T06:44:56;1.70;;;1.48;;
13048;SDS011;6591;51.446;5.404;2023-09-18T06:47:23;2.40;;;1.63;;
13048;SDS011;6591;51.446;5.404;2023-09-18T06:49:51;2.92;;;1.63;;
13048;SDS011;6591;51.446;5.404;2023-09-18T06:52:18;1.73;;;1.33;;
13048;SDS011;6591;51.446;5.404;2023-09-18T06:54:45;2.55;;;1.58;;
13048;SDS011;6591;51.446;5.404;2023-09-18T06:57:12;1.85;;;1.45;;
13048;SDS011;6591;51.446;5.404;2023-09-18T06:59:39;1.90;;;1.50;;
13048;SDS011;6591;51.446;5.404;2023-09-18T07:02:07;3.53;;;1.52;;
13048;SDS011;6591;51.446;5.404;2023-09-18T07:04:34;1.92;;;1.60;;
13048;SDS011;6591;51.446;5.404;2023-09-18T07:07:01;1.80;;;1.58;;
13048;SDS011;6591;51.446;5.404;2023-09-18T07:09:28;2.55;;;1.50;;
13048;SDS011;6591;51.446;5.404;2023-09-18T07:11:57;2.78;;;1.67;;
13048;SDS011;6591;51.446;5.404;2023-09-18T07:14:24;2.05;;;1.45;;
13048;SDS011;6591;51.446;5.404;2023-09-18T07:16:51;2.88;;;1.27;;
13048;SDS011;6591;51.446;5.404;2023-09-18T07:19:18;1.83;;;1.58;;
13048;SDS011;6591;51.446;5.404;2023-09-18T07:21:45;2.17;;;1.50;;
13048;SDS011;6591;51.446;5.404;2023-09-18T07:24:12;2.75;;;1.50;;
13048;SDS011;6591;51.446;5.404;2023-09-18T07:26:47;2.28;;;1.40;;
13048;SDS011;6591;51.446;5.404;2023-09-18T07:29:15;2.47;;;1.45;;
13048;SDS011;6591;51.446;5.404;2023-09-18T07:31:43;2.65;;;1.40;;
13048;SDS011;6591;51.446;5.404;2023-09-18T07:34:10;2.65;;;1.48;;
13048;SDS011;6591;51.446;5.404;2023-09-18T07:36:39;1.58;;;1.38;;
13048;SDS011;6591;51.446;5.404;2023-09-18T07:39:07;2.67;;;1.75;;
13048;SDS011;6591;51.446;5.404;2023-09-18T07:41:34;2.42;;;1.58;;
13048;SDS011;6591;51.446;5.404;2023-09-18T07:44:01;2.30;;;1.40;;
13048;SDS011;6591;51.446;5.404;2023-09-18T07:46:28;3.47;;;1.55;;
13048;SDS011;6591;51.446;5.404;2023-09-18T07:48:55;2.83;;;1.83;;
13048;SDS011;6591;51.446;5.404;2023-09-18T07:51:23;2.00;;;1.48;;
13048;SDS011;6591;51.446;5.404;2023-09-18T07:53:50;2.67;;;1.63;;
13048;SDS011;6591;51.446;5.404;2023-09-18T07:56:17;3.20;;;1.20;;
13048;SDS011;6591;51.446;5.404;2023-09-18T07:58:45;2.60;;;1.55;;
13048;SDS011;6591;51.446;5.404;2023-09-18T08:01:13;1.65;;;1.50;;
13048;SDS011;6591;51.446;5.404;2023-09-18T08:03:42;1.50;;;1.27;;
13048;SDS011;6591;51.446;5.404;2023-09-18T08:06:10;3.60;;;1.63;;
13048;SDS011;6591;51.446;5.404;2023-09-18T08:08:38;1.98;;;1.73;;
13048;SDS011;6591;51.446;5.404;2023-09-18T08:11:07;1.70;;;1.60;;
13048;SDS011;6591;51.446;5.404;2023-09-18T08:13:35;2.20;;;1.45;;
13048;SDS011;6591;51.446;5.404;2023-09-18T08:16:05;1.60;;;1.40;;
13048;SDS011;6591;51.446;5.404;2023-09-18T08:18:34;1.95;;;1.60;;
13048;SDS011;6591;51.446;5.404;2023-09-18T08:21:02;1.95;;;1.42;;
13048;SDS011;6591;51.446;5.404;2023-09-18T08:23:31;2.78;;;1.50;;
13048;SDS011;6591;51.446;5.404;2023-09-18T08:25:59;1.80;;;1.48;;
13048;SDS011;6591;51.446;5.404;2023-09-18T08:28:26;1.83;;;1.38;;
13048;SDS011;6591;51.446;5.404;2023-09-18T08:30:53;4.90;;;2.10;;
13048;SDS011;6591;51.446;5.404;2023-09-18T08:33:21;1.83;;;1.50;;
13048;SDS011;6591;51.446;5.404;2023-09-18T08:35:48;1.77;;;1.58;;
13048;SDS011;6591;51.446;5.404;2023-09-18T08:38:16;2.45;;;1.60;;
13048;SDS011;6591;51.446;5.404;2023-09-18T08:40:43;2.67;;;1.77;;
13048;SDS011;6591;51.446;5.404;2023-09-18T08:43:12;2.47;;;1.58;;
13048;SDS011;6591;51.446;5.404;2023-09-18T08:45:52;2.17;;;1.50;;
13048;SDS011;6591;51.446;5.404;2023-09-18T08:48:23;3.15;;;1.70;;
13048;SDS011;6591;51.446;5.404;2023-09-18T08:50:52;6.05;;;1.70;;
13048;SDS011;6591;51.446;5.404;2023-09-18T08:53:21;2.63;;;1.60;;
13048;SDS011;6591;51.446;5.404;2023-09-18T08:55:48;3.20;;;1.70;;
13048;SDS011;6591;51.446;5.404;2023-09-18T08:58:15;2.65;;;1.58;;
13048;SDS011;6591;51.446;5.404;2023-09-18T09:00:46;2.47;;;1.50;;
13048;SDS011;6591;51.446;5.404;2023-09-18T09:03:13;1.80;;;1.55;;
13048;SDS011;6591;51.446;5.404;2023-09-18T09:05:40;4.10;;;1.80;;
13048;SDS011;6591;51.446;5.404;2023-09-18T09:08:08;3.13;;;2.13;;
13048;SDS011;6591;51.446;5.404;2023-09-18T09:10:35;2.15;;;1.95;;
13048;SDS011;6591;51.446;5.404;2023-09-18T09:13:03;3.47;;;1.92;;
13048;SDS011;6591;51.446;5.404;2023-09-18T09:15:32;3.15;;;1.83;;
13048;SDS011;6591;51.446;5.404;2023-09-18T09:18:14;3.40;;;1.88;;
13048;SDS011;6591;51.446;5.404;2023-09-18T09:20:52;5.47;;;2.20;;
13048;SDS011;6591;51.446;5.404;2023-09-18T09:23:25;2.83;;;1.83;;
13048;SDS011;6591;51.446;5.404;2023-09-18T09:25:56;2.35;;;1.83;;
13048;SDS011;6591;51.446;5.404;2023-09-18T09:28:40;3.85;;;2.13;;
13048;SDS011;6591;51.446;5.404;2023-09-18T09:31:10;2.92;;;2.13;;
13048;SDS011;6591;51.446;5.404;2023-09-18T09:33:37;5.50;;;2.10;;
13048;SDS011;6591;51.446;5.404;2023-09-18T09:36:07;4.18;;;2.28;;
13048;SDS011;6591;51.446;5.404;2023-09-18T09:38:34;3.00;;;2.00;;
13048;SDS011;6591;51.446;5.404;2023-09-18T09:41:02;2.78;;;1.85;;
13048;SDS011;6591;51.446;5.404;2023-09-18T09:43:36;3.30;;;1.83;;
13048;SDS011;6591;51.446;5.404;2023-09-18T09:46:04;2.25;;;1.73;;
13048;SDS011;6591;51.446;5.404;2023-09-18T09:48:31;2.17;;;1.85;;
13048;SDS011;6591;51.446;5.404;2023-09-18T09:51:00;3.38;;;1.85;;
13048;SDS011;6591;51.446;5.404;2023-09-18T09:53:43;2.83;;;1.90;;
13048;SDS011;6591;51.446;5.404;2023-09-18T09:56:18;3.72;;;1.90;;
13048;SDS011;6591;51.446;5.404;2023-09-18T09:59:01;2.92;;;1.75;;
13048;SDS011;6591;51.446;5.404;2023-09-18T10:01:35;2.97;;;1.75;;
13048;SDS011;6591;51.446;5.404;2023-09-18T10:04:11;2.05;;;1.80;;
13048;SDS011;6591;51.446;5.404;2023-09-18T10:06:51;3.00;;;1.70;;
13048;SDS011;6591;51.446;5.404;2023-09-18T10:09:22;2.28;;;1.48;;
13048;SDS011;6591;51.446;5.404;2023-09-18T10:11:56;4.30;;;2.03;;
13048;SDS011;6591;51.446;5.404;2023-09-18T10:14:29;3.10;;;1.75;;
13048;SDS011;6591;51.446;5.404;2023-09-18T10:17:17;3.13;;;1.70;;
13048;SDS011;6591;51.446;5.404;2023-09-18T10:19:49;3.40;;;1.73;;
13048;SDS011;6591;51.446;5.404;2023-09-18T10:22:44;1.45;;;1.35;;
13048;SDS011;6591;51.446;5.404;2023-09-18T10:25:15;2.72;;;1.98;;
13048;SDS011;6591;51.446;5.404;2023-09-18T10:27:48;2.25;;;1.60;;
13048;SDS011;6591;51.446;5.404;2023-09-18T10:30:20;4.50;;;2.00;;
13048;SDS011;6591;51.446;5.404;2023-09-18T10:32:49;2.03;;;1.60;;
13048;SDS011;6591;51.446;5.404;2023-09-18T10:35:18;2.53;;;1.65;;
13048;SDS011;6591;51.446;5.404;2023-09-18T10:37:48;3.63;;;2.00;;
13048;SDS011;6591;51.446;5.404;2023-09-18T10:40:20;3.05;;;2.50;;
13048;SDS011;6591;51.446;5.404;2023-09-18T10:42:48;3.33;;;1.90;;
13048;SDS011;6591;51.446;5.404;2023-09-18T10:45:20;2.67;;;1.85;;
13048;SDS011;6591;51.446;5.404;2023-09-18T10:47:48;3.58;;;1.95;;
13048;SDS011;6591;51.446;5.404;2023-09-18T10:50:23;2.15;;;1.95;;
13048;SDS011;6591;51.446;5.404;2023-09-18T10:52:52;5.82;;;2.45;;
13048;SDS011;6591;51.446;5.404;2023-09-18T10:55:21;2.35;;;1.80;;
13048;SDS011;6591;51.446;5.404;2023-09-18T10:57:58;4.82;;;2.45;;
13048;SDS011;6591;51.446;5.404;2023-09-18T11:00:27;3.53;;;2.30;;
13048;SDS011;6591;51.446;5.404;2023-09-18T11:03:15;4.78;;;2.22;;
13048;SDS011;6591;51.446;5.404;2023-09-18T11:05:45;3.85;;;2.08;;
13048;SDS011;6591;51.446;5.404;2023-09-18T11:11:17;3.30;;;1.95;;
13048;SDS011;6591;51.446;5.404;2023-09-18T11:13:52;5.93;;;2.30;;
13048;SDS011;6591;51.446;5.404;2023-09-18T11:18:53;6.70;;;2.30;;
13048;SDS011;6591;51.446;5.404;2023-09-18T11:21:28;3.90;;;2.47;;
13048;SDS011;6591;51.446;5.404;2023-09-18T11:24:16;3.15;;;2.25;;
13048;SDS011;6591;51.446;5.404;2023-09-18T11:26:48;3.13;;;2.22;;
13048;SDS011;6591;51.446;5.404;2023-09-18T11:29:22;3.90;;;2.13;;
13048;SDS011;6591;51.446;5.404;2023-09-18T11:31:53;4.78;;;2.00;;
13048;SDS011;6591;51.446;5.404;2023-09-18T11:34:26;2.78;;;2.03;;
13048;SDS011;6591;51.446;5.404;2023-09-18T11:36:57;2.70;;;2.17;;
13048;SDS011;6591;51.446;5.404;2023-09-18T11:42:10;2.72;;;2.00;;
13048;SDS011;6591;51.446;5.404;2023-09-18T11:44:45;2.90;;;1.80;;
13048;SDS011;6591;51.446;5.404;2023-09-18T11:47:16;2.30;;;1.98;;
13048;SDS011;6591;51.446;5.404;2023-09-18T11:52:26;3.00;;;2.17;;
13048;SDS011;6591;51.446;5.404;2023-09-18T11:54:57;3.10;;;2.05;;
13048;SDS011;6591;51.446;5.404;2023-09-18T11:57:27;2.78;;;1.90;;
13048;SDS011;6591;51.446;5.404;2023-09-18T11:59:56;2.72;;;1.92;;
13048;SDS011;6591;51.446;5.404;2023-09-18T12:02:29;2.85;;;2.08;;
13048;SDS011;6591;51.446;5.404;2023-09-18T12:07:42;2.88;;;2.00;;
13048;SDS011;6591;51.446;5.404;2023-09-18T12:10:13;2.00;;;1.77;;
13048;SDS011;6591;51.446;5.404;2023-09-18T12:12:46;2.17;;;1.90;;
13048;SDS011;6591;51.446;5.404;2023-09-18T12:15:14;2.17;;;1.90;;
13048;SDS011;6591;51.446;5.404;2023-09-18T12:17:44;2.83;;;1.67;;
13048;SDS011;6591;51.446;5.404;2023-09-18T12:20:15;1.88;;;1.77;;
13048;SDS011;6591;51.446;5.404;2023-09-18T12:22:47;2.22;;;1.90;;
13048;SDS011;6591;51.446;5.404;2023-09-18T12:25:17;2.80;;;1.90;;
13048;SDS011;6591;51.446;5.404;2023-09-18T12:27:53;3.28;;;1.75;;
13048;SDS011;6591;51.446;5.404;2023-09-18T12:30:21;2.40;;;2.08;;
13048;SDS011;6591;51.446;5.404;2023-09-18T12:32:51;3.50;;;1.90;;
13048;SDS011;6591;51.446;5.404;2023-09-18T12:35:20;2.55;;;1.80;;
13048;SDS011;6591;51.446;5.404;2023-09-18T12:37:47;5.25;;;2.15;;
13048;SDS011;6591;51.446;5.404;2023-09-18T12:40:22;2.47;;;2.08;;
13048;SDS011;6591;51.446;5.404;2023-09-18T12:42:53;2.25;;;2.05;;
13048;SDS011;6591;51.446;5.404;2023-09-18T12:45:24;2.72;;;2.03;;
13048;SDS011;6591;51.446;5.404;2023-09-18T12:47:54;2.10;;;1.80;;
13048;SDS011;6591;51.446;5.404;2023-09-18T12:50:24;4.00;;;2.22;;
13048;SDS011;6591;51.446;5.404;2023-09-18T12:53:05;2.58;;;1.90;;
13048;SDS011;6591;51.446;5.404;2023-09-18T12:55:40;3.55;;;1.90;;
13048;SDS011;6591;51.446;5.404;2023-09-18T12:58:12;3.20;;;2.05;;
13048;SDS011;6591;51.446;5.404;2023-09-18T13:00:50;2.95;;;1.80;;
13048;SDS011;6591;51.446;5.404;2023-09-18T13:03:17;4.80;;;2.25;;
13048;SDS011;6591;51.446;5.404;2023-09-18T13:05:45;1.80;;;1.70;;
13048;SDS011;6591;51.446;5.404;2023-09-18T13:08:13;2.47;;;1.70;;
13048;SDS011;6591;51.446;5.404;2023-09-18T13:13:15;2.78;;;1.80;;
13048;SDS011;6591;51.446;5.404;2023-09-18T13:15:47;3.15;;;1.80;;
13048;SDS011;6591;51.446;5.404;2023-09-18T13:18:21;5.97;;;2.25;;
13048;SDS011;6591;51.446;5.404;2023-09-18T13:20:51;2.13;;;1.70;;
13048;SDS011;6591;51.446;5.404;2023-09-18T13:23:19;2.40;;;1.80;;
13048;SDS011;6591;51.446;5.404;2023-09-18T13:25:48;2.33;;;1.98;;
13048;SDS011;6591;51.446;5.404;2023-09-18T13:28:15;2.08;;;1.88;;
13048;SDS011;6591;51.446;5.404;2023-09-18T13:30:44;3.08;;;1.75;;
13048;SDS011;6591;51.446;5.404;2023-09-18T13:33:12;2.00;;;1.67;;
13048;SDS011;6591;51.446;5.404;2023-09-18T13:35:43;4.00;;;1.70;;
13048;SDS011;6591;51.446;5.404;2023-09-18T13:38:12;2.20;;;1.55;;
13048;SDS011;6591;51.446;5.404;2023-09-18T13:40:40;3.00;;;1.80;;
13048;SDS011;6591;51.446;5.404;2023-09-18T13:43:11;3.15;;;1.80;;
13048;SDS011;6591;51.446;5.404;2023-09-18T13:45:41;3.13;;;1.80;;
13048;SDS011;6591;51.446;5.404;2023-09-18T13:48:09;2.70;;;1.90;;
13048;SDS011;6591;51.446;5.404;2023-09-18T13:50:36;3.47;;;1.90;;
13048;SDS011;6591;51.446;5.404;2023-09-18T13:53:05;1.70;;;1.60;;
13048;SDS011;6591;51.446;5.404;2023-09-18T13:55:33;2.03;;;1.77;;
13048;SDS011;6591;51.446;5.404;2023-09-18T13:58:01;2.33;;;1.88;;
13048;SDS011;6591;51.446;5.404;2023-09-18T14:00:31;3.17;;;1.77;;
13048;SDS011;6591;51.446;5.404;2023-09-18T14:02:59;2.03;;;1.55;;
13048;SDS011;6591;51.446;5.404;2023-09-18T14:05:26;3.47;;;1.77;;
13048;SDS011;6591;51.446;5.404;2023-09-18T14:07:55;3.47;;;1.60;;
13048;SDS011;6591;51.446;5.404;2023-09-18T14:10:27;3.67;;;1.58;;
13048;SDS011;6591;51.446;5.404;2023-09-18T14:12:54;1.70;;;1.45;;
13048;SDS011;6591;51.446;5.404;2023-09-18T14:15:23;2.10;;;1.63;;
13048;SDS011;6591;51.446;5.404;2023-09-18T14:17:51;1.52;;;1.38;;
13048;SDS011;6591;51.446;5.404;2023-09-18T14:20:18;2.88;;;1.60;;
13048;SDS011;6591;51.446;5.404;2023-09-18T14:22:48;1.92;;;1.60;;
13048;SDS011;6591;51.446;5.404;2023-09-18T14:25:17;1.67;;;1.58;;
13048;SDS011;6591;51.446;5.404;2023-09-18T14:27:47;2.38;;;1.58;;
13048;SDS011;6591;51.446;5.404;2023-09-18T14:30:14;2.97;;;2.03;;
13048;SDS011;6591;51.446;5.404;2023-09-18T14:32:42;2.30;;;1.70;;
13048;SDS011;6591;51.446;5.404;2023-09-18T14:35:10;2.92;;;1.70;;
13048;SDS011;6591;51.446;5.404;2023-09-18T14:37:38;2.97;;;1.73;;
13048;SDS011;6591;51.446;5.404;2023-09-18T14:40:05;1.45;;;1.30;;
13048;SDS011;6591;51.446;5.404;2023-09-18T14:42:39;1.83;;;1.40;;
13048;SDS011;6591;51.446;5.404;2023-09-18T14:45:07;2.70;;;1.48;;
13048;SDS011;6591;51.446;5.404;2023-09-18T14:47:35;3.60;;;1.50;;
13048;SDS011;6591;51.446;5.404;2023-09-18T14:50:03;1.75;;;1.30;;
13048;SDS011;6591;51.446;5.404;2023-09-18T14:52:32;2.33;;;1.38;;
13048;SDS011;6591;51.446;5.404;2023-09-18T14:54:58;2.38;;;1.58;;
13048;SDS011;6591;51.446;5.404;2023-09-18T14:57:30;2.50;;;1.50;;
13048;SDS011;6591;51.446;5.404;2023-09-18T14:59:57;1.90;;;1.48;;
13048;SDS011;6591;51.446;5.404;2023-09-18T15:02:25;4.32;;;1.75;;
13048;SDS011;6591;51.446;5.404;2023-09-18T15:04:56;2.22;;;1.50;;
13048;SDS011;6591;51.446;5.404;2023-09-18T15:07:24;2.38;;;1.60;;
13048;SDS011;6591;51.446;5.404;2023-09-18T15:09:51;2.97;;;1.75;;
13048;SDS011;6591;51.446;5.404;2023-09-18T15:12:18;3.63;;;1.85;;
13048;SDS011;6591;51.446;5.404;2023-09-18T15:14:45;2.13;;;1.58;;
13048;SDS011;6591;51.446;5.404;2023-09-18T15:17:12;3.28;;;1.55;;
13048;SDS011;6591;51.446;5.404;2023-09-18T15:19:40;1.60;;;1.35;;
13048;SDS011;6591;51.446;5.404;2023-09-18T15:22:08;1.48;;;1.30;;
13048;SDS011;6591;51.446;5.404;2023-09-18T15:24:36;2.20;;;1.60;;
13048;SDS011;6591;51.446;5.404;2023-09-18T15:27:04;1.58;;;1.40;;
13048;SDS011;6591;51.446;5.404;2023-09-18T15:29:31;2.33;;;1.60;;
13048;SDS011;6591;51.446;5.404;2023-09-18T15:32:01;1.73;;;1.00;;